Time;durP1;ratioP1;P1;durP2;ratioP2;P2;SDS_P1;SDS_P2;PMS_P1;PMS_P2;Temp;Humidity;BMP_temperature;BMP_pressure;BME280_temperature;BME280_humidity;BME280_pressure;Samples;Min_cycle;Max_cycle;Signal;HPM_P1;HPM_P2
2021/12/11 00:01:40;;;;;;;71.47;44.77;;;3.10;98.30;;;;;;5174664;23;20950;-80
2021/12/11 00:03:46;;;;;;;70.63;43.00;;;3.00;98.30;;;;;;5175341;23;20394;-80
2021/12/11 00:05:52;;;;;;;70.40;40.37;;;3.00;98.30;;;;;;5174689;22;20457;-79
2021/12/11 00:07:56;;;;;;;69.63;40.50;;;3.00;98.30;;;;;;5174919;23;20428;-81
2021/12/11 00:10:01;;;;;;;67.17;37.57;;;3.00;98.30;;;;;;5175076;23;20417;-81
2021/12/11 00:12:08;;;;;;;69.30;38.57;;;3.00;98.30;;;;;;5172315;23;20437;-79
2021/12/11 00:14:13;;;;;;;77.23;41.40;;;3.00;98.30;;;;;;5181252;22;20816;-80
2021/12/11 00:16:21;;;;;;;68.60;42.13;;;3.00;98.30;;;;;;5172348;23;20444;-79
2021/12/11 00:18:28;;;;;;;69.63;38.63;;;3.00;98.30;;;;;;5171697;22;20197;-80
2021/12/11 00:20:36;;;;;;;71.40;42.55;;;3.00;98.30;;;;;;5172721;23;20645;-80
2021/12/11 00:22:42;;;;;;;66.67;39.73;;;3.00;98.30;;;;;;5171983;23;20533;-79
2021/12/11 00:24:45;;;;;;;73.63;41.43;;;2.90;98.30;;;;;;5172207;23;20470;-80
2021/12/11 00:26:52;;;;;;;76.32;43.20;;;3.00;98.30;;;;;;5172417;23;20490;-80
2021/12/11 00:28:55;;;;;;;73.13;40.65;;;2.90;98.30;;;;;;5172172;23;20201;-80
2021/12/11 00:30:59;;;;;;;76.90;42.33;;;2.90;98.30;;;;;;5180519;23;20243;-80
2021/12/11 00:33:08;;;;;;;71.80;40.85;;;2.90;98.30;;;;;;5172709;23;20251;-79
2021/12/11 00:35:14;;;;;;;72.57;41.63;;;2.90;98.30;;;;;;5173601;23;20720;-81
2021/12/11 00:37:20;;;;;;;71.50;41.10;;;3.00;98.30;;;;;;5172389;23;20185;-80
2021/12/11 00:39:24;;;;;;;70.50;41.57;;;2.90;98.30;;;;;;5172114;23;20220;-80
2021/12/11 00:41:31;;;;;;;70.65;40.33;;;2.90;98.30;;;;;;5173334;23;20428;-80
2021/12/11 00:43:36;;;;;;;71.80;41.92;;;2.90;98.30;;;;;;5171837;23;20188;-78
2021/12/11 00:45:41;;;;;;;66.88;41.35;;;3.00;98.30;;;;;;5172875;23;20177;-80
2021/12/11 00:47:49;;;;;;;65.57;41.10;;;3.00;98.30;;;;;;5181968;23;20177;-80
2021/12/11 00:49:56;;;;;;;75.07;42.65;;;2.90;98.30;;;;;;5172427;23;20220;-80
2021/12/11 00:52:04;;;;;;;73.65;41.58;;;2.90;98.30;;;;;;5173027;22;20181;-80
2021/12/11 00:54:08;;;;;;;81.30;43.25;;;2.90;98.30;;;;;;5172442;23;20186;-78
2021/12/11 00:56:16;;;;;;;72.97;42.22;;;2.90;98.30;;;;;;5171505;23;20205;-81
2021/12/11 00:58:21;;;;;;;74.20;42.00;;;2.80;98.30;;;;;;5171558;23;20203;-80
2021/12/11 01:00:25;;;;;;;69.80;42.17;;;2.80;98.30;;;;;;5181060;23;20173;-79
2021/12/11 01:02:28;;;;;;;69.00;40.97;;;2.80;98.30;;;;;;5173812;23;20188;-79
2021/12/11 01:04:40;;;;;;;71.50;40.50;;;2.80;98.30;;;;;;5182157;23;20173;-80
2021/12/11 01:06:48;;;;;;;63.33;41.05;;;2.80;98.30;;;;;;5173751;23;20166;-80
2021/12/11 01:08:57;;;;;;;66.45;39.78;;;2.90;98.30;;;;;;5173774;23;20209;-79
2021/12/11 01:11:07;;;;;;;64.53;38.10;;;2.90;98.30;;;;;;5174924;22;20165;-80
2021/12/11 01:13:14;;;;;;;70.70;39.75;;;2.90;98.30;;;;;;5176406;22;20398;-80
2021/12/11 01:15:21;;;;;;;70.80;41.33;;;2.90;98.30;;;;;;5177137;23;20169;-80
2021/12/11 01:17:35;;;;;;;67.70;38.97;;;2.90;98.30;;;;;;5173210;23;20444;-79
2021/12/11 01:19:41;;;;;;;71.40;42.50;;;3.00;98.30;;;;;;5172331;23;20591;-80
2021/12/11 01:21:56;;;;;;;68.60;38.90;;;3.00;98.30;;;;;;5182197;23;20507;-79
2021/12/11 01:24:13;;;;;;;66.53;40.10;;;3.00;98.30;;;;;;5172399;23;20655;-80
2021/12/11 01:26:21;;;;;;;71.33;41.93;;;3.10;98.30;;;;;;5180849;23;20450;-79
2021/12/11 01:28:24;;;;;;;68.37;40.77;;;3.00;98.30;;;;;;5172732;23;20448;-80
2021/12/11 01:30:36;;;;;;;64.17;36.93;;;3.00;98.30;;;;;;5173262;23;20410;-80
2021/12/11 01:32:40;;;;;;;65.43;38.90;;;3.00;98.30;;;;;;5182601;23;20446;-79
2021/12/11 01:34:45;;;;;;;71.78;40.80;;;3.10;98.30;;;;;;5172302;23;20452;-79
2021/12/11 01:36:50;;;;;;;66.20;39.58;;;3.20;98.30;;;;;;5171668;23;20529;-79
2021/12/11 01:38:56;;;;;;;72.47;40.20;;;3.20;98.30;;;;;;5171472;23;20205;-78
2021/12/11 01:41:03;;;;;;;73.68;39.28;;;3.20;98.30;;;;;;5172529;23;20647;-80
2021/12/11 01:43:08;;;;;;;66.72;37.65;;;3.00;98.30;;;;;;5181502;23;20208;-79
2021/12/11 01:45:14;;;;;;;63.97;38.28;;;2.90;98.30;;;;;;5180724;23;20556;-80
2021/12/11 01:47:20;;;;;;;64.27;37.93;;;2.90;98.30;;;;;;5172931;23;20162;-79
2021/12/11 01:49:24;;;;;;;67.43;40.15;;;2.90;98.30;;;;;;5172524;23;20451;-80
2021/12/11 01:51:30;;;;;;;61.47;37.65;;;2.90;98.30;;;;;;5172503;23;20177;-79
2021/12/11 01:53:45;;;;;;;64.70;38.75;;;2.90;98.30;;;;;;5173575;23;20186;-80
2021/12/11 01:55:54;;;;;;;67.47;40.55;;;2.80;98.30;;;;;;5173465;23;20166;-79
2021/12/11 01:57:58;;;;;;;73.87;39.87;;;2.90;98.30;;;;;;5173852;23;20157;-79
2021/12/11 02:00:11;;;;;;;67.10;39.70;;;3.00;98.30;;;;;;5180735;23;20906;-78
2021/12/11 02:02:18;;;;;;;64.53;38.45;;;2.90;98.30;;;;;;5180810;23;20431;-79
2021/12/11 02:04:25;;;;;;;69.13;40.43;;;2.90;98.30;;;;;;5172983;23;20182;-80
2021/12/11 02:06:29;;;;;;;65.60;40.20;;;2.90;98.30;;;;;;5173697;23;20419;-78
2021/12/11 02:08:36;;;;;;;61.67;38.92;;;3.00;98.30;;;;;;5172616;22;20216;-79
2021/12/11 02:10:46;;;;;;;66.90;38.93;;;3.00;98.30;;;;;;5182480;23;20639;-79
2021/12/11 02:12:51;;;;;;;67.90;40.47;;;3.00;98.30;;;;;;5173319;23;20408;-78
2021/12/11 02:14:56;;;;;;;72.80;42.60;;;3.00;98.30;;;;;;5182597;22;20728;-79
2021/12/11 02:17:01;;;;;;;68.05;39.40;;;3.00;98.30;;;;;;5174758;23;20440;-80
2021/12/11 02:19:10;;;;;;;67.10;38.00;;;2.90;98.30;;;;;;5174325;22;20207;-79
2021/12/11 02:21:17;;;;;;;69.40;40.70;;;2.90;98.30;;;;;;5175299;22;20394;-79
2021/12/11 02:23:22;;;;;;;62.87;36.30;;;2.90;98.30;;;;;;5172058;23;20168;-80
2021/12/11 02:25:29;;;;;;;60.20;37.97;;;2.90;98.30;;;;;;5172714;23;20491;-79
2021/12/11 02:27:43;;;;;;;69.22;39.15;;;2.80;98.30;;;;;;5180556;23;20204;-80
2021/12/11 02:29:51;;;;;;;73.30;39.63;;;2.80;98.30;;;;;;5171782;23;20228;-79
2021/12/11 02:31:59;;;;;;;66.90;39.85;;;2.80;98.30;;;;;;5172409;22;20416;-80
2021/12/11 02:34:09;;;;;;;69.53;41.33;;;2.90;98.30;;;;;;5172627;23;20181;-80
2021/12/11 02:36:17;;;;;;;65.50;39.10;;;2.80;98.30;;;;;;5173437;23;20462;-80
2021/12/11 02:38:27;;;;;;;61.97;38.70;;;2.80;98.30;;;;;;5171255;23;20422;-79
2021/12/11 02:40:35;;;;;;;64.20;38.45;;;2.80;98.30;;;;;;5180133;23;20403;-80
2021/12/11 02:42:40;;;;;;;66.40;38.70;;;2.90;98.30;;;;;;5180859;23;20486;-79
2021/12/11 02:44:47;;;;;;;67.47;39.53;;;2.90;98.30;;;;;;5173224;23;20428;-79
2021/12/11 02:46:56;;;;;;;68.40;39.10;;;2.90;98.30;;;;;;5171392;23;20409;-80
2021/12/11 02:49:02;;;;;;;78.27;40.00;;;2.90;98.30;;;;;;5171318;23;20262;-80
2021/12/11 02:51:12;;;;;;;74.18;40.65;;;2.90;98.30;;;;;;5171777;23;21024;-80
2021/12/11 02:53:19;;;;;;;65.30;39.08;;;2.90;98.30;;;;;;5179638;23;20785;-80
2021/12/11 02:55:27;;;;;;;70.70;38.72;;;2.90;98.30;;;;;;5172113;23;20185;-79
2021/12/11 02:57:33;;;;;;;66.82;40.20;;;3.00;98.30;;;;;;5172282;23;20570;-80
2021/12/11 02:59:41;;;;;;;69.45;39.28;;;3.00;98.30;;;;;;5171270;23;20209;-80
2021/12/11 03:01:48;;;;;;;63.83;39.20;;;2.90;98.30;;;;;;5172244;23;20169;-79
2021/12/11 03:04:00;;;;;;;69.55;38.83;;;2.90;98.30;;;;;;5173047;23;20192;-79
2021/12/11 03:06:11;;;;;;;63.08;39.80;;;2.80;98.30;;;;;;5172239;23;20193;-80
2021/12/11 03:08:15;;;;;;;67.25;39.90;;;2.80;98.30;;;;;;5172157;23;20192;-79
2021/12/11 03:10:25;;;;;;;65.97;38.27;;;2.80;98.30;;;;;;5173190;23;20181;-79
2021/12/11 03:12:28;;;;;;;71.38;38.72;;;2.90;98.30;;;;;;5173436;23;20444;-80
2021/12/11 03:14:31;;;;;;;62.70;38.50;;;2.90;98.30;;;;;;5181769;23;20182;-78
2021/12/11 03:16:36;;;;;;;62.45;37.72;;;2.90;98.30;;;;;;5174893;23;20185;-80
2021/12/11 03:18:39;;;;;;;71.50;40.38;;;2.90;98.30;;;;;;5181339;23;20208;-79
2021/12/11 03:20:45;;;;;;;149.90;83.57;;;2.90;98.30;;;;;;5181763;23;20184;-79
2021/12/11 03:22:48;;;;;;;82.90;44.83;;;2.80;98.30;;;;;;5172745;23;20181;-80
2021/12/11 03:24:51;;;;;;;66.28;39.15;;;2.80;98.30;;;;;;5175099;23;20188;-79
2021/12/11 03:26:57;;;;;;;71.88;39.00;;;2.80;98.30;;;;;;5175521;23;20185;-79
2021/12/11 03:29:00;;;;;;;65.45;38.95;;;2.80;98.30;;;;;;5171314;23;20205;-80
2021/12/11 03:31:05;;;;;;;64.75;40.53;;;2.80;98.30;;;;;;5172220;23;20204;-80
2021/12/11 03:33:12;;;;;;;66.00;39.33;;;2.90;98.30;;;;;;5172759;23;20631;-80
2021/12/11 03:35:15;;;;;;;64.03;36.70;;;2.90;98.30;;;;;;5182319;23;20165;-79
2021/12/11 03:37:21;;;;;;;66.47;37.43;;;2.90;98.30;;;;;;5172465;23;20974;-80
2021/12/11 03:39:28;;;;;;;68.90;42.03;;;2.90;98.30;;;;;;5181315;23;20502;-79
2021/12/11 03:41:31;;;;;;;65.90;39.10;;;2.90;98.30;;;;;;5173624;23;20181;-80
2021/12/11 03:43:36;;;;;;;151.65;86.72;;;2.90;98.30;;;;;;5181484;23;20207;-78
2021/12/11 03:45:41;;;;;;;83.07;45.97;;;2.80;98.30;;;;;;5181727;23;20239;-79
2021/12/11 03:47:47;;;;;;;79.93;50.10;;;2.80;98.30;;;;;;5172725;23;20648;-79
2021/12/11 03:49:51;;;;;;;72.15;43.88;;;2.80;98.30;;;;;;5180767;23;20440;-77
2021/12/11 03:51:55;;;;;;;70.77;40.80;;;2.90;98.30;;;;;;5179857;23;20181;-79
2021/12/11 03:53:59;;;;;;;69.40;40.53;;;2.90;98.30;;;;;;5180398;23;20893;-79
2021/12/11 03:56:06;;;;;;;64.33;38.30;;;2.90;98.30;;;;;;5172838;23;20181;-80
2021/12/11 03:58:10;;;;;;;70.93;38.17;;;2.90;98.30;;;;;;5179661;23;20492;-79
2021/12/11 04:00:19;;;;;;;60.95;36.58;;;3.00;98.30;;;;;;5172530;23;20399;-78
2021/12/11 04:02:26;;;;;;;62.55;38.85;;;3.00;98.30;;;;;;5171032;23;20547;-78
2021/12/11 04:04:32;;;;;;;68.03;39.50;;;2.90;98.30;;;;;;5171682;23;20168;-79
2021/12/11 04:06:36;;;;;;;70.60;39.60;;;2.80;98.30;;;;;;5179694;23;20398;-78
2021/12/11 04:08:41;;;;;;;68.88;36.78;;;2.80;98.30;;;;;;5171304;23;20287;-79
2021/12/11 04:10:46;;;;;;;71.68;39.58;;;2.70;98.30;;;;;;5178818;23;20170;-79
2021/12/11 04:12:49;;;;;;;72.07;39.22;;;2.70;98.30;;;;;;5172072;23;20181;-79
2021/12/11 04:14:55;;;;;;;66.78;41.25;;;2.70;98.30;;;;;;5171948;23;20181;-79
2021/12/11 04:17:00;;;;;;;68.40;39.22;;;2.80;98.30;;;;;;5173025;23;20190;-79
2021/12/11 04:19:08;;;;;;;93.30;56.05;;;2.80;98.30;;;;;;5172679;22;20247;-78
2021/12/11 04:21:12;;;;;;;76.90;41.75;;;2.70;98.30;;;;;;5172633;23;20871;-78
2021/12/11 04:23:17;;;;;;;69.15;40.17;;;2.70;98.30;;;;;;5173476;23;20247;-78
2021/12/11 04:25:23;;;;;;;65.22;37.70;;;2.70;98.30;;;;;;5181536;23;20169;-79
2021/12/11 04:27:27;;;;;;;65.88;39.50;;;2.60;98.30;;;;;;5182082;23;20178;-79
2021/12/11 04:29:31;;;;;;;69.70;40.00;;;2.60;98.30;;;;;;5173458;23;20205;-80
2021/12/11 04:31:36;;;;;;;71.90;40.70;;;2.70;98.30;;;;;;5173931;23;20686;-79
2021/12/11 04:33:45;;;;;;;69.72;41.45;;;2.70;98.30;;;;;;5181020;23;20181;-79
2021/12/11 04:35:48;;;;;;;74.47;41.50;;;2.60;98.30;;;;;;5180719;23;20166;-79
2021/12/11 04:37:51;;;;;;;69.15;39.13;;;2.60;98.30;;;;;;5171617;23;20182;-79
2021/12/11 04:40:00;;;;;;;61.30;37.63;;;2.60;98.30;;;;;;5180094;23;20697;-80
2021/12/11 04:42:13;;;;;;;66.10;38.97;;;2.60;98.30;;;;;;5172635;23;20165;-78
2021/12/11 04:44:22;;;;;;;62.80;38.63;;;2.60;98.30;;;;;;5174005;22;20181;-79
2021/12/11 04:46:25;;;;;;;64.75;38.95;;;2.60;98.30;;;;;;5173966;23;20834;-79
2021/12/11 04:48:37;;;;;;;71.82;39.85;;;2.50;98.30;;;;;;5173585;23;20194;-80
2021/12/11 04:50:50;;;;;;;64.50;37.90;;;2.50;98.30;;;;;;5174365;22;20162;-79
2021/12/11 04:52:55;;;;;;;64.18;40.83;;;2.50;98.30;;;;;;5171113;23;20223;-80
2021/12/11 04:55:09;;;;;;;72.40;40.83;;;2.50;98.30;;;;;;5182819;23;20177;-79
2021/12/11 04:57:52;;;;;;;63.97;38.40;;;2.50;98.30;;;;;;5173333;23;20161;-78
2021/12/11 05:00:07;;;;;;;68.82;40.33;;;2.50;98.30;;;;;;5172527;23;20279;-78
2021/12/11 05:02:40;;;;;;;72.72;38.90;;;2.50;98.30;;;;;;5180497;23;20180;-79
2021/12/11 05:04:53;;;;;;;63.38;38.50;;;2.50;98.30;;;;;;5172630;23;20501;-79
2021/12/11 05:07:04;;;;;;;68.88;39.55;;;2.50;98.30;;;;;;5173099;23;20174;-80
2021/12/11 05:09:26;;;;;;;66.85;40.28;;;2.50;98.30;;;;;;5171372;22;20201;-79
2021/12/11 05:11:37;;;;;;;72.03;39.70;;;2.50;98.30;;;;;;5180309;23;20162;-79
2021/12/11 05:13:42;;;;;;;68.75;38.90;;;2.50;98.30;;;;;;5173604;23;20281;-79
2021/12/11 05:15:49;;;;;;;70.03;39.80;;;2.50;98.30;;;;;;5171648;23;20190;-79
2021/12/11 05:17:53;;;;;;;68.93;40.85;;;2.60;98.30;;;;;;5172706;23;20537;-78
2021/12/11 05:19:55;;;;;;;60.97;36.88;;;2.50;98.30;;;;;;5171741;23;20217;-80
2021/12/11 05:22:00;;;;;;;60.28;37.80;;;2.60;98.30;;;;;;5173453;23;20243;-79
2021/12/11 05:24:05;;;;;;;69.90;38.38;;;2.50;98.30;;;;;;5174169;22;20514;-79
2021/12/11 05:26:08;;;;;;;62.95;37.10;;;2.60;98.30;;;;;;5174206;23;20655;-79
2021/12/11 05:28:11;;;;;;;66.38;38.92;;;2.50;98.30;;;;;;5182324;23;20188;-77
2021/12/11 05:30:17;;;;;;;65.90;38.90;;;2.50;98.30;;;;;;5174129;23;20228;-80
2021/12/11 05:32:24;;;;;;;66.30;40.33;;;2.50;98.30;;;;;;5183429;23;20181;-80
2021/12/11 05:34:27;;;;;;;67.38;38.35;;;2.50;98.30;;;;;;5174337;23;20184;-80
2021/12/11 05:36:31;;;;;;;62.53;38.42;;;2.60;98.30;;;;;;5175068;23;20220;-78
2021/12/11 05:38:39;;;;;;;66.00;38.47;;;2.50;98.30;;;;;;5172111;23;20285;-80
2021/12/11 05:40:47;;;;;;;63.05;37.40;;;2.40;98.30;;;;;;5173223;23;20228;-79
2021/12/11 05:42:51;;;;;;;69.97;37.28;;;2.40;98.30;;;;;;5172751;23;20627;-80
2021/12/11 05:44:54;;;;;;;65.68;38.75;;;2.40;98.30;;;;;;5172061;23;20640;-78
2021/12/11 05:46:57;;;;;;;64.55;37.83;;;2.40;98.30;;;;;;5180533;23;20208;-80
2021/12/11 05:49:01;;;;;;;61.55;38.00;;;2.40;98.30;;;;;;5171359;23;20307;-80
2021/12/11 05:51:07;;;;;;;69.47;39.47;;;2.40;98.30;;;;;;5181997;23;20177;-80
2021/12/11 05:53:10;;;;;;;68.30;39.65;;;2.40;98.30;;;;;;5181414;22;20993;-80
2021/12/11 05:55:17;;;;;;;78.20;41.90;;;2.40;98.30;;;;;;5172919;23;20185;-79
2021/12/11 05:57:21;;;;;;;79.90;40.53;;;2.40;98.30;;;;;;5172955;23;20207;-80
2021/12/11 05:59:24;;;;;;;70.53;39.88;;;2.40;98.30;;;;;;5172218;23;20198;-78
2021/12/11 06:01:32;;;;;;;76.25;40.40;;;2.30;98.30;;;;;;5172072;23;20208;-79
2021/12/11 06:03:37;;;;;;;72.22;39.25;;;2.30;98.30;;;;;;5180818;23;20184;-80
2021/12/11 06:05:40;;;;;;;67.53;38.70;;;2.30;98.30;;;;;;5181054;23;20197;-79
2021/12/11 06:07:44;;;;;;;76.95;38.70;;;2.30;98.30;;;;;;5173162;23;20181;-80
2021/12/11 06:09:49;;;;;;;77.55;42.00;;;2.30;98.30;;;;;;5180386;23;20541;-78
2021/12/11 06:11:56;;;;;;;73.65;40.22;;;2.30;98.30;;;;;;5175839;23;20184;-79
2021/12/11 06:13:59;;;;;;;75.88;40.65;;;2.30;98.30;;;;;;5176588;23;20166;-79
2021/12/11 06:16:06;;;;;;;75.90;42.38;;;2.20;98.30;;;;;;5182093;23;20178;-80
2021/12/11 06:18:15;;;;;;;75.88;42.53;;;2.20;98.30;;;;;;5173680;23;20231;-80
2021/12/11 06:20:20;;;;;;;82.88;41.97;;;2.10;98.30;;;;;;5173817;23;20260;-80
2021/12/11 06:22:26;;;;;;;69.25;40.67;;;2.20;98.30;;;;;;5173663;22;20178;-80
2021/12/11 06:24:29;;;;;;;65.63;40.50;;;2.20;98.30;;;;;;5181015;23;20204;-80
2021/12/11 06:26:32;;;;;;;73.90;42.13;;;2.10;98.30;;;;;;5182002;22;20210;-80
2021/12/11 06:28:38;;;;;;;74.40;42.08;;;2.10;98.30;;;;;;5171861;23;20289;-79
2021/12/11 06:30:41;;;;;;;74.85;42.88;;;2.10;98.30;;;;;;5173598;23;20621;-79
2021/12/11 06:32:47;;;;;;;81.85;44.80;;;2.00;98.30;;;;;;5174806;23;20200;-79
2021/12/11 06:34:50;;;;;;;75.90;42.83;;;2.00;98.30;;;;;;5174102;23;20166;-80
2021/12/11 06:36:54;;;;;;;87.93;44.47;;;2.00;98.30;;;;;;5181976;23;20203;-77
2021/12/11 06:39:00;;;;;;;82.97;42.85;;;2.10;98.30;;;;;;5174799;22;20201;-78
2021/12/11 06:41:11;;;;;;;78.00;42.45;;;2.00;98.30;;;;;;5177206;22;20181;-78
2021/12/11 06:43:15;;;;;;;76.13;41.33;;;1.90;98.30;;;;;;5185767;22;20240;-80
2021/12/11 06:45:19;;;;;;;70.88;42.72;;;1.90;98.30;;;;;;5180404;23;20178;-78
2021/12/11 06:47:22;;;;;;;76.18;44.15;;;1.90;98.30;;;;;;5181674;23;20207;-79
2021/12/11 06:49:25;;;;;;;75.15;42.80;;;1.90;98.30;;;;;;5176630;23;20198;-79
2021/12/11 06:51:28;;;;;;;85.28;44.40;;;1.90;98.30;;;;;;5182773;23;20233;-79
2021/12/11 06:53:35;;;;;;;77.05;42.95;;;1.90;98.30;;;;;;5180942;23;20258;-79
2021/12/11 06:55:38;;;;;;;72.03;40.45;;;1.90;98.30;;;;;;5182795;23;20195;-79
2021/12/11 06:57:41;;;;;;;68.53;41.33;;;1.90;98.30;;;;;;5191462;23;20267;-79
2021/12/11 06:59:44;;;;;;;65.72;40.10;;;1.90;98.30;;;;;;5177040;23;20202;-80
2021/12/11 07:01:49;;;;;;;77.13;40.05;;;1.90;98.30;;;;;;5175280;23;20189;-78
2021/12/11 07:03:52;;;;;;;78.05;42.92;;;1.90;98.30;;;;;;5173685;23;20182;-80
2021/12/11 07:05:55;;;;;;;82.65;42.03;;;1.90;98.30;;;;;;5173828;22;20181;-79
2021/12/11 07:08:04;;;;;;;72.30;39.35;;;1.90;98.30;;;;;;5182783;23;20235;-80
2021/12/11 07:10:11;;;;;;;73.78;42.10;;;1.90;98.30;;;;;;5171421;23;20227;-79
2021/12/11 07:12:14;;;;;;;69.50;40.28;;;2.00;98.30;;;;;;5172475;23;20241;-79
2021/12/11 07:14:19;;;;;;;73.68;41.88;;;2.00;98.30;;;;;;5173608;23;20192;-80
2021/12/11 07:16:22;;;;;;;72.68;43.85;;;2.00;98.30;;;;;;5173671;23;20260;-79
2021/12/11 07:18:28;;;;;;;74.13;42.63;;;2.00;98.30;;;;;;5175902;23;20202;-80
2021/12/11 07:20:31;;;;;;;71.40;41.13;;;1.80;98.30;;;;;;5177055;23;20287;-79
2021/12/11 07:22:34;;;;;;;70.10;40.90;;;1.90;98.30;;;;;;5183842;23;20181;-80
2021/12/11 07:24:41;;;;;;;71.82;40.25;;;1.90;98.30;;;;;;5175665;23;20216;-79
2021/12/11 07:26:44;;;;;;;70.55;38.10;;;1.90;98.30;;;;;;5185327;23;20177;-80
2021/12/11 07:28:51;;;;;;;72.60;40.35;;;1.90;98.30;;;;;;5175539;23;20618;-79
2021/12/11 07:30:57;;;;;;;71.25;40.15;;;2.00;98.30;;;;;;5175518;23;20264;-80
2021/12/11 07:33:04;;;;;;;82.95;42.20;;;2.00;98.30;;;;;;5172592;23;20162;-80
2021/12/11 07:35:10;;;;;;;71.15;41.97;;;2.00;98.30;;;;;;5171605;23;20224;-79
2021/12/11 07:37:13;;;;;;;71.32;39.80;;;2.00;98.30;;;;;;5169580;23;20561;-80
2021/12/11 07:39:18;;;;;;;68.00;39.00;;;2.00;98.30;;;;;;5169285;22;20205;-79
2021/12/11 07:41:22;;;;;;;65.70;39.47;;;2.00;98.30;;;;;;5180589;23;20197;-80
2021/12/11 07:43:27;;;;;;;60.47;37.03;;;2.00;98.30;;;;;;5173558;23;20183;-80
2021/12/11 07:45:30;;;;;;;68.75;37.75;;;2.00;98.30;;;;;;5172819;23;20187;-80
2021/12/11 07:47:33;;;;;;;63.13;35.33;;;2.00;98.30;;;;;;5180276;23;20216;-80
2021/12/11 07:49:36;;;;;;;68.00;36.10;;;2.10;98.30;;;;;;5168656;23;20288;-82
2021/12/11 07:51:41;;;;;;;55.80;34.22;;;2.20;98.30;;;;;;5173935;23;20185;-82
2021/12/11 07:53:45;;;;;;;56.13;33.85;;;2.20;98.30;;;;;;5175196;23;20253;-81
2021/12/11 07:55:48;;;;;;;54.42;34.00;;;2.30;98.30;;;;;;5166812;23;20194;-81
2021/12/11 07:57:52;;;;;;;54.75;34.75;;;2.30;98.30;;;;;;5175138;23;20498;-80
2021/12/11 07:59:55;;;;;;;56.50;35.72;;;2.30;98.30;;;;;;5174545;23;20201;-82
2021/12/11 08:01:58;;;;;;;58.17;34.88;;;2.40;98.30;;;;;;5176477;23;20552;-80
2021/12/11 08:04:01;;;;;;;52.88;33.72;;;2.40;98.30;;;;;;5176079;23;20652;-81
2021/12/11 08:06:06;;;;;;;54.05;32.08;;;2.50;98.30;;;;;;5173794;23;20181;-80
2021/12/11 08:08:11;;;;;;;47.33;31.85;;;2.50;98.30;;;;;;5174535;23;20188;-82
2021/12/11 08:10:18;;;;;;;51.40;31.70;;;2.50;98.30;;;;;;5174584;23;20253;-82
2021/12/11 08:12:21;;;;;;;57.90;32.05;;;2.50;98.30;;;;;;5166145;23;20549;-81
2021/12/11 08:14:25;;;;;;;49.97;31.15;;;2.50;98.30;;;;;;5166146;23;20627;-81
2021/12/11 08:16:34;;;;;;;52.20;32.55;;;2.50;98.30;;;;;;5174700;23;20204;-80
2021/12/11 08:18:38;;;;;;;50.33;30.52;;;2.40;98.30;;;;;;5168113;23;20208;-78
2021/12/11 08:20:44;;;;;;;47.17;30.27;;;2.50;98.30;;;;;;5168490;23;20550;-79
2021/12/11 08:22:46;;;;;;;46.47;31.65;;;2.50;98.30;;;;;;5170922;23;20495;-80
2021/12/11 08:24:51;;;;;;;44.10;30.50;;;2.50;98.30;;;;;;5170463;22;20178;-80
2021/12/11 08:26:57;;;;;;;54.35;29.90;;;2.40;98.30;;;;;;5168592;23;20184;-79
2021/12/11 08:29:00;;;;;;;43.28;29.50;;;2.40;98.30;;;;;;5179110;23;20194;-80
2021/12/11 08:31:04;;;;;;;49.35;30.70;;;2.40;98.30;;;;;;5170424;23;20192;-79
2021/12/11 08:33:07;;;;;;;43.15;27.98;;;2.40;98.30;;;;;;5170582;23;20492;-79
2021/12/11 08:35:12;;;;;;;49.65;31.45;;;2.30;98.30;;;;;;5179567;23;20170;-81
2021/12/11 08:37:18;;;;;;;60.13;31.67;;;2.40;98.30;;;;;;5171362;23;20283;-80
2021/12/11 08:39:22;;;;;;;44.13;29.10;;;2.40;98.30;;;;;;5171330;23;20201;-79
2021/12/11 08:41:29;;;;;;;50.17;31.63;;;2.40;98.30;;;;;;5178252;23;20201;-79
2021/12/11 08:43:35;;;;;;;48.45;29.70;;;2.40;98.30;;;;;;5179585;23;20189;-79
2021/12/11 08:45:47;;;;;;;44.97;29.45;;;2.50;98.30;;;;;;5170445;23;20635;-79
2021/12/11 08:47:58;;;;;;;44.78;28.48;;;2.50;98.30;;;;;;5170282;23;20592;-79
2021/12/11 08:50:02;;;;;;;45.53;31.33;;;2.50;98.30;;;;;;5170079;23;20169;-80
2021/12/11 08:52:09;;;;;;;48.30;29.90;;;2.50;98.30;;;;;;5178860;23;20205;-79
2021/12/11 08:54:13;;;;;;;46.08;31.65;;;2.40;98.30;;;;;;5179143;23;20180;-80
2021/12/11 08:56:16;;;;;;;45.38;29.33;;;2.40;98.30;;;;;;5170371;23;20188;-80
2021/12/11 08:58:23;;;;;;;45.38;31.17;;;2.40;98.30;;;;;;5170662;23;20205;-79
2021/12/11 09:00:30;;;;;;;49.40;28.52;;;2.40;98.30;;;;;;5179638;23;20517;-80
2021/12/11 09:02:42;;;;;;;48.03;29.85;;;2.40;98.30;;;;;;5170540;23;20706;-79
2021/12/11 09:04:53;;;;;;;44.75;29.70;;;2.50;98.30;;;;;;5170724;23;20166;-79
2021/12/11 09:07:00;;;;;;;43.05;28.27;;;2.40;98.30;;;;;;5169611;23;20203;-80
2021/12/11 09:09:08;;;;;;;45.75;31.40;;;2.50;98.30;;;;;;5170248;23;20212;-78
2021/12/11 09:11:16;;;;;;;44.65;28.95;;;2.50;98.30;;;;;;5169731;23;20257;-79
2021/12/11 09:13:27;;;;;;;41.33;29.27;;;2.50;98.30;;;;;;5170280;23;20260;-79
2021/12/11 09:15:34;;;;;;;41.92;27.90;;;2.60;98.30;;;;;;5169990;23;20534;-79
2021/12/11 09:17:41;;;;;;;46.22;30.20;;;2.60;98.30;;;;;;5170896;23;20185;-80
2021/12/11 09:19:47;;;;;;;48.03;29.45;;;2.60;98.30;;;;;;5170662;23;20308;-80
2021/12/11 09:21:55;;;;;;;41.25;28.35;;;2.60;98.30;;;;;;5169923;23;20202;-82
2021/12/11 09:24:04;;;;;;;40.55;27.60;;;2.70;98.30;;;;;;5171277;23;20528;-80
2021/12/11 09:26:13;;;;;;;38.42;28.35;;;2.70;98.30;;;;;;5179662;23;20189;-80
2021/12/11 09:28:21;;;;;;;37.47;26.95;;;2.70;98.30;;;;;;5171348;23;20187;-80
2021/12/11 09:32:39;;;;;;;43.22;28.55;;;2.80;98.30;;;;;;5139563;22;20203;-80
2021/12/11 09:34:46;;;;;;;45.42;29.52;;;2.90;98.30;;;;;;5151906;23;20185;-81
2021/12/11 09:36:54;;;;;;;45.70;28.67;;;2.90;98.30;;;;;;5151983;23;20178;-80
2021/12/11 09:39:05;;;;;;;43.03;28.80;;;2.80;98.30;;;;;;5151475;23;20181;-81
2021/12/11 09:41:27;;;;;;;44.67;30.38;;;2.90;98.30;;;;;;5143300;23;20301;-80
2021/12/11 09:43:40;;;;;;;43.80;29.02;;;3.00;98.30;;;;;;5152486;23;20197;-80
2021/12/11 09:45:48;;;;;;;37.88;27.05;;;2.90;98.30;;;;;;5148107;23;20505;-81
2021/12/11 09:47:57;;;;;;;42.97;27.53;;;3.00;98.30;;;;;;5152294;23;20192;-81
2021/12/11 09:53:10;;;;;;;45.20;28.58;;;3.00;98.30;;;;;;5132050;23;20192;-82
2021/12/11 09:57:50;;;;;;;42.08;27.90;;;3.00;98.30;;;;;;5155936;23;20178;-80
2021/12/11 10:06:07;;;;;;;37.20;25.48;;;2.90;98.30;;;;;;4968306;23;20187;-81
2021/12/11 10:08:28;;;;;;;39.58;26.50;;;3.00;98.30;;;;;;5162106;23;20253;-81
2021/12/11 10:10:31;;;;;;;41.22;25.58;;;3.00;98.30;;;;;;5159376;23;20539;-81
2021/12/11 10:12:40;;;;;;;36.92;24.65;;;3.00;98.30;;;;;;5155798;23;20444;-80
2021/12/11 10:14:46;;;;;;;40.63;26.65;;;3.00;98.30;;;;;;5154597;23;20190;-82
2021/12/11 10:16:53;;;;;;;42.30;26.20;;;3.10;98.30;;;;;;5155515;23;20182;-82
2021/12/11 10:18:57;;;;;;;37.75;24.38;;;3.10;98.30;;;;;;5153117;23;20186;-80
2021/12/11 10:21:15;;;;;;;41.45;26.48;;;3.20;98.30;;;;;;5154617;23;20240;-81
2021/12/11 10:23:23;;;;;;;33.42;23.02;;;3.10;98.30;;;;;;5155069;23;20182;-81
2021/12/11 10:25:30;;;;;;;33.58;25.05;;;3.20;98.30;;;;;;5146706;23;20169;-81
2021/12/11 10:27:37;;;;;;;34.38;25.27;;;3.20;98.30;;;;;;5154177;23;20647;-82
2021/12/11 10:29:42;;;;;;;36.28;25.80;;;3.20;98.30;;;;;;5143871;23;20198;-82
2021/12/11 10:31:54;;;;;;;36.22;26.13;;;3.20;98.30;;;;;;5154013;23;20175;-82
2021/12/11 10:34:00;;;;;;;37.90;24.40;;;3.30;98.30;;;;;;5178628;23;20235;-81
2021/12/11 10:36:09;;;;;;;35.63;24.27;;;3.40;98.30;;;;;;5178831;23;20200;-81
2021/12/11 10:38:16;;;;;;;44.13;26.83;;;3.50;98.30;;;;;;5178250;23;20203;-82
2021/12/11 10:40:57;;;;;;;35.42;25.20;;;3.50;98.30;;;;;;5176679;23;20193;-82
2021/12/11 10:43:39;;;;;;;38.38;25.48;;;3.50;98.30;;;;;;5072741;23;20573;-82
2021/12/11 10:46:23;;;;;;;33.15;24.15;;;3.60;98.30;;;;;;5090240;23;20180;-82
2021/12/11 10:51:49;;;;;;;35.83;26.35;;;3.70;98.30;;;;;;5080500;23;20183;-84
2021/12/11 10:53:53;;;;;;;35.10;25.83;;;3.70;98.30;;;;;;5099263;23;20218;-85
2021/12/11 10:55:59;;;;;;;36.45;25.45;;;3.70;98.30;;;;;;5147594;23;20483;-84
2021/12/11 10:58:07;;;;;;;34.00;24.73;;;3.70;98.30;;;;;;5176767;23;20201;-82
2021/12/11 11:00:18;;;;;;;28.83;23.20;;;3.70;98.30;;;;;;5176572;23;20468;-82
2021/12/11 11:02:26;;;;;;;37.63;23.60;;;3.70;98.30;;;;;;5175933;23;20650;-82
2021/12/11 11:04:36;;;;;;;31.65;23.20;;;3.70;98.30;;;;;;5176837;23;20526;-82
2021/12/11 11:06:42;;;;;;;35.43;23.27;;;3.70;98.30;;;;;;5176333;23;20173;-82
2021/12/11 11:08:48;;;;;;;38.80;25.40;;;3.70;98.30;;;;;;5176494;23;20420;-82